sensor_id;sensor_type;location;lat;lon;timestamp;pressure;altitude;pressure_sealevel;temperature;humidity
1736;BME280;865;53.672;10.250;2023-04-21T00:00:55;101779.56;;;5.40;100.00
1736;BME280;865;53.672;10.250;2023-04-21T00:03:22;101783.88;;;5.40;100.00
1736;BME280;865;53.672;10.250;2023-04-21T00:05:56;101779.56;;;5.40;100.00
1736;BME280;865;53.672;10.250;2023-04-21T00:08:24;101783.78;;;5.35;100.00
1736;BME280;865;53.672;10.250;2023-04-21T00:10:51;101785.53;;;5.36;100.00
1736;BME280;865;53.672;10.250;2023-04-21T00:13:18;101776.97;;;5.40;100.00
1736;BME280;865;53.672;10.250;2023-04-21T00:15:44;101777.88;;;5.42;100.00
1736;BME280;865;53.672;10.250;2023-04-21T00:18:11;101774.44;;;5.43;100.00
1736;BME280;865;53.672;10.250;2023-04-21T00:20:38;101775.19;;;5.36;100.00
1736;BME280;865;53.672;10.250;2023-04-21T00:23:04;101773.44;;;5.35;100.00
1736;BME280;865;53.672;10.250;2023-04-21T00:25:31;101779.47;;;5.34;100.00
1736;BME280;865;53.672;10.250;2023-04-21T00:27:57;101771.56;;;5.27;100.00
1736;BME280;865;53.672;10.250;2023-04-21T00:30:23;101769.84;;;5.27;100.00
1736;BME280;865;53.672;10.250;2023-04-21T00:32:50;101769.00;;;5.27;100.00
1736;BME280;865;53.672;10.250;2023-04-21T00:35:16;101768.13;;;5.28;100.00
1736;BME280;865;53.672;10.250;2023-04-21T00:37:42;101769.75;;;5.22;100.00
1736;BME280;865;53.672;10.250;2023-04-21T00:40:09;101764.78;;;5.33;100.00
1736;BME280;865;53.672;10.250;2023-04-21T00:42:36;101771.63;;;5.31;100.00
1736;BME280;865;53.672;10.250;2023-04-21T00:45:03;101769.00;;;5.28;100.00
1736;BME280;865;53.672;10.250;2023-04-21T00:47:30;101763.03;;;5.32;100.00
1736;BME280;865;53.672;10.250;2023-04-21T00:49:57;101761.34;;;5.33;100.00
1736;BME280;865;53.672;10.250;2023-04-21T00:52:24;101760.44;;;5.32;100.00
1736;BME280;865;53.672;10.250;2023-04-21T00:54:52;101762.19;;;5.33;100.00
1736;BME280;865;53.672;10.250;2023-04-21T00:57:19;101756.16;;;5.33;100.00
1736;BME280;865;53.672;10.250;2023-04-21T00:59:45;101755.22;;;5.29;100.00
1736;BME280;865;53.672;10.250;2023-04-21T01:02:14;101753.47;;;5.28;100.00
1736;BME280;865;53.672;10.250;2023-04-21T01:04:42;101751.69;;;5.25;100.00
1736;BME280;865;53.672;10.250;2023-04-21T01:07:08;101749.09;;;5.24;100.00
1736;BME280;865;53.672;10.250;2023-04-21T01:09:35;101748.25;;;5.25;100.00
1736;BME280;865;53.672;10.250;2023-04-21T01:12:03;101747.38;;;5.24;100.00
1736;BME280;865;53.672;10.250;2023-04-21T01:14:30;101749.84;;;5.18;100.00
1736;BME280;865;53.672;10.250;2023-04-21T01:16:57;101755.84;;;5.16;100.00
1736;BME280;865;53.672;10.250;2023-04-21T01:19:25;101754.06;;;5.13;100.00
1736;BME280;865;53.672;10.250;2023-04-21T01:21:53;101752.34;;;5.12;100.00
1736;BME280;865;53.672;10.250;2023-04-21T01:24:23;101746.28;;;5.12;100.00
1736;BME280;865;53.672;10.250;2023-04-21T01:26:52;101747.22;;;5.15;100.00
1736;BME280;865;53.672;10.250;2023-04-21T01:29:18;101748.84;;;5.10;100.00
1736;BME280;865;53.672;10.250;2023-04-21T01:31:45;101742.78;;;5.10;100.00
1736;BME280;865;53.672;10.250;2023-04-21T01:34:13;101746.25;;;5.10;100.00
1736;BME280;865;53.672;10.250;2023-04-21T01:36:39;101743.72;;;5.12;100.00
1736;BME280;865;53.672;10.250;2023-04-21T01:39:06;101739.47;;;5.17;100.00
1736;BME280;865;53.672;10.250;2023-04-21T01:41:32;101741.19;;;5.15;100.00
1736;BME280;865;53.672;10.250;2023-04-21T01:43:59;101740.28;;;5.14;100.00
1736;BME280;865;53.672;10.250;2023-04-21T01:46:26;101737.63;;;5.10;100.00
1736;BME280;865;53.672;10.250;2023-04-21T01:48:52;101739.28;;;5.06;100.00
1736;BME280;865;53.672;10.250;2023-04-21T01:51:18;101738.53;;;5.12;100.00
1736;BME280;865;53.672;10.250;2023-04-21T01:53:45;101738.53;;;5.12;100.00
1736;BME280;865;53.672;10.250;2023-04-21T01:56:14;101734.19;;;5.11;100.00
1736;BME280;865;53.672;10.250;2023-04-21T01:58:40;101732.41;;;5.07;100.00
1736;BME280;865;53.672;10.250;2023-04-21T02:01:07;101733.22;;;5.06;100.00
1736;BME280;865;53.672;10.250;2023-04-21T02:03:33;101733.19;;;5.04;100.00
1736;BME280;865;53.672;10.250;2023-04-21T02:06:00;101740.22;;;5.10;100.00
1736;BME280;865;53.672;10.250;2023-04-21T02:08:26;101727.22;;;5.07;100.00
1736;BME280;865;53.672;10.250;2023-04-21T02:10:53;101734.94;;;5.05;100.00
1736;BME280;865;53.672;10.250;2023-04-21T02:13:19;101728.03;;;5.06;100.00
1736;BME280;865;53.672;10.250;2023-04-21T02:15:45;101727.22;;;5.07;100.00
1736;BME280;865;53.672;10.250;2023-04-21T02:18:12;101721.13;;;5.03;100.00
1736;BME280;865;53.672;10.250;2023-04-21T02:20:38;101721.94;;;5.00;100.00
1736;BME280;865;53.672;10.250;2023-04-21T02:23:04;101719.41;;;5.05;100.00
1736;BME280;865;53.672;10.250;2023-04-21T02:25:31;101726.25;;;5.01;100.00
1736;BME280;865;53.672;10.250;2023-04-21T02:27:57;101716.84;;;5.05;100.00
1736;BME280;865;53.672;10.250;2023-04-21T02:30:23;101711.72;;;5.07;100.00
1736;BME280;865;53.672;10.250;2023-04-21T02:32:49;101711.72;;;5.07;100.00
1736;BME280;865;53.672;10.250;2023-04-21T02:35:16;101710.78;;;5.05;100.00
1736;BME280;865;53.672;10.250;2023-04-21T02:37:42;101710.72;;;5.00;100.00
1736;BME280;865;53.672;10.250;2023-04-21T02:40:09;101706.44;;;5.00;100.00
1736;BME280;865;53.672;10.250;2023-04-21T02:42:35;101708.97;;;4.97;100.00
1736;BME280;865;53.672;10.250;2023-04-21T02:45:02;101707.22;;;4.98;100.00
1736;BME280;865;53.672;10.250;2023-04-21T02:47:28;101712.38;;;4.96;100.00
1736;BME280;865;53.672;10.250;2023-04-21T02:49:55;101708.03;;;4.95;100.00
1736;BME280;865;53.672;10.250;2023-04-21T02:52:21;101706.31;;;4.94;100.00
1736;BME280;865;53.672;10.250;2023-04-21T02:54:48;101702.94;;;4.98;100.00
1736;BME280;865;53.672;10.250;2023-04-21T02:57:14;101713.22;;;4.95;100.00
1736;BME280;865;53.672;10.250;2023-04-21T02:59:40;101714.09;;;4.96;100.00
1736;BME280;865;53.672;10.250;2023-04-21T03:02:06;101711.47;;;4.94;100.00
1736;BME280;865;53.672;10.250;2023-04-21T03:04:33;101708.84;;;4.91;100.00
1736;BME280;865;53.672;10.250;2023-04-21T03:07:00;101708.84;;;4.93;100.00
1736;BME280;865;53.672;10.250;2023-04-21T03:09:26;101701.94;;;4.92;100.00
1736;BME280;865;53.672;10.250;2023-04-21T03:11:53;101703.78;;;4.97;100.00
1736;BME280;865;53.672;10.250;2023-04-21T03:14:19;101698.50;;;4.91;100.00
1736;BME280;865;53.672;10.250;2023-04-21T03:16:46;101695.97;;;4.94;100.00
1736;BME280;865;53.672;10.250;2023-04-21T03:19:12;101706.47;;;5.03;100.00
1736;BME280;865;53.672;10.250;2023-04-21T03:21:38;101696.13;;;5.03;100.00
1736;BME280;865;53.672;10.250;2023-04-21T03:24:05;101701.31;;;5.03;100.00
1736;BME280;865;53.672;10.250;2023-04-21T03:26:32;101697.91;;;5.06;100.00
1736;BME280;865;53.672;10.250;2023-04-21T03:28:59;101702.94;;;4.98;100.00
1736;BME280;865;53.672;10.250;2023-04-21T03:31:25;101694.38;;;5.01;100.00
1736;BME280;865;53.672;10.250;2023-04-21T03:33:52;101694.25;;;4.96;100.00
1736;BME280;865;53.672;10.250;2023-04-21T03:36:18;101690.81;;;4.96;100.00
1736;BME280;865;53.672;10.250;2023-04-21T03:38:44;101689.94;;;4.94;100.00
1736;BME280;865;53.672;10.250;2023-04-21T03:41:11;101702.75;;;4.89;100.00
1736;BME280;865;53.672;10.250;2023-04-21T03:43:37;101694.13;;;4.89;100.00
1736;BME280;865;53.672;10.250;2023-04-21T03:46:03;101693.31;;;4.91;100.00
1736;BME280;865;53.672;10.250;2023-04-21T03:48:30;101692.47;;;4.92;100.00
1736;BME280;865;53.672;10.250;2023-04-21T03:50:57;101695.81;;;4.85;100.00
1736;BME280;865;53.672;10.250;2023-04-21T03:53:23;101690.63;;;4.85;100.00
1736;BME280;865;53.672;10.250;2023-04-21T03:55:49;101694.91;;;4.85;100.00
1736;BME280;865;53.672;10.250;2023-04-21T03:58:16;101688.09;;;4.88;100.00
1736;BME280;865;53.672;10.250;2023-04-21T04:00:42;101696.84;;;4.96;100.00
1736;BME280;865;53.672;10.250;2023-04-21T04:03:09;101701.91;;;4.90;100.00
1736;BME280;865;53.672;10.250;2023-04-21T04:05:35;101692.47;;;4.92;100.00
1736;BME280;865;53.672;10.250;2023-04-21T04:08:02;101695.97;;;4.94;100.00
1736;BME280;865;53.672;10.250;2023-04-21T04:10:28;101687.28;;;4.91;100.00
1736;BME280;865;53.672;10.250;2023-04-21T04:12:54;101695.00;;;4.89;100.00
1736;BME280;865;53.672;10.250;2023-04-21T04:15:21;101686.38;;;4.89;100.00
1736;BME280;865;53.672;10.250;2023-04-21T04:17:47;101679.44;;;4.88;100.00
1736;BME280;865;53.672;10.250;2023-04-21T04:20:14;101683.84;;;4.92;100.00
1736;BME280;865;53.672;10.250;2023-04-21T04:22:40;101675.13;;;4.85;100.00
1736;BME280;865;53.672;10.250;2023-04-21T04:25:07;101678.63;;;4.90;100.00
1736;BME280;865;53.672;10.250;2023-04-21T04:27:33;101681.22;;;4.89;100.00
1736;BME280;865;53.672;10.250;2023-04-21T04:30:00;101678.69;;;4.93;100.00
1736;BME280;865;53.672;10.250;2023-04-21T04:32:26;101680.50;;;4.97;100.00
1736;BME280;865;53.672;10.250;2023-04-21T04:34:54;101676.28;;;5.02;100.00
1736;BME280;865;53.672;10.250;2023-04-21T04:37:23;101681.53;;;5.07;100.00
1736;BME280;865;53.672;10.250;2023-04-21T04:39:53;101683.28;;;5.08;100.00
1736;BME280;865;53.672;10.250;2023-04-21T04:42:20;101677.13;;;5.01;100.00
1736;BME280;865;53.672;10.250;2023-04-21T04:44:46;101684.19;;;5.10;100.00
1736;BME280;865;53.672;10.250;2023-04-21T04:47:13;101683.44;;;5.17;100.00
1736;BME280;865;53.672;10.250;2023-04-21T04:49:39;101686.88;;;5.16;100.00
1736;BME280;865;53.672;10.250;2023-04-21T04:52:05;101679.22;;;5.21;100.00
1736;BME280;865;53.672;10.250;2023-04-21T04:54:32;101681.09;;;5.30;100.00
1736;BME280;865;53.672;10.250;2023-04-21T04:56:58;101681.97;;;5.30;100.00
1736;BME280;865;53.672;10.250;2023-04-21T04:59:25;101680.44;;;5.41;100.00
1736;BME280;865;53.672;10.250;2023-04-21T05:01:53;101676.28;;;5.53;100.00
1736;BME280;865;53.672;10.250;2023-04-21T05:04:20;101675.56;;;5.61;100.00
1736;BME280;865;53.672;10.250;2023-04-21T05:06:47;101677.47;;;5.73;100.00
1736;BME280;865;53.672;10.250;2023-04-21T05:09:13;101680.09;;;5.75;100.00
1736;BME280;865;53.672;10.250;2023-04-21T05:11:39;101682.75;;;5.81;100.00
1736;BME280;865;53.672;10.250;2023-04-21T05:14:06;101679.41;;;5.88;100.00
1736;BME280;865;53.672;10.250;2023-04-21T05:16:33;101677.84;;;5.96;100.00
1736;BME280;865;53.672;10.250;2023-04-21T05:19:02;101676.28;;;6.07;100.00
1736;BME280;865;53.672;10.250;2023-04-21T05:21:29;101681.63;;;6.20;100.00
1736;BME280;865;53.672;10.250;2023-04-21T05:23:57;101680.91;;;6.31;100.00
1736;BME280;865;53.672;10.250;2023-04-21T05:26:24;101677.59;;;6.45;100.00
1736;BME280;865;53.672;10.250;2023-04-21T05:28:53;101677.78;;;6.58;100.00
1736;BME280;865;53.672;10.250;2023-04-21T05:31:20;101681.44;;;6.76;100.00
1736;BME280;865;53.672;10.250;2023-04-21T05:33:46;101673.75;;;6.87;100.00
1736;BME280;865;53.672;10.250;2023-04-21T05:36:12;101674.72;;;6.93;100.00
1736;BME280;865;53.672;10.250;2023-04-21T05:38:39;101658.31;;;6.99;100.00
1736;BME280;865;53.672;10.250;2023-04-21T05:41:06;101662.75;;;7.09;100.00
1736;BME280;865;53.672;10.250;2023-04-21T05:43:33;101662.84;;;7.18;100.00
1736;BME280;865;53.672;10.250;2023-04-21T05:46:00;101668.91;;;7.17;100.00
1736;BME280;865;53.672;10.250;2023-04-21T05:48:27;101659.50;;;7.35;100.00
1736;BME280;865;53.672;10.250;2023-04-21T05:50:54;101669.09;;;7.42;100.00
1736;BME280;865;53.672;10.250;2023-04-21T05:53:21;101655.34;;;7.55;100.00
1736;BME280;865;53.672;10.250;2023-04-21T05:55:48;101659.72;;;7.61;100.00
1736;BME280;865;53.672;10.250;2023-04-21T05:58:15;101658.91;;;7.69;100.00
1736;BME280;865;53.672;10.250;2023-04-21T06:00:41;101654.59;;;7.68;100.00
1736;BME280;865;53.672;10.250;2023-04-21T06:03:08;101652.91;;;7.75;100.00
1736;BME280;865;53.672;10.250;2023-04-21T06:05:35;101654.69;;;7.81;100.00
1736;BME280;865;53.672;10.250;2023-04-21T06:08:01;101646.91;;;7.87;100.00
1736;BME280;865;53.672;10.250;2023-04-21T06:10:27;101650.47;;;8.01;100.00
1736;BME280;865;53.672;10.250;2023-04-21T06:12:54;101646.97;;;7.99;100.00
1736;BME280;865;53.672;10.250;2023-04-21T06:15:20;101651.41;;;8.17;100.00
1736;BME280;865;53.672;10.250;2023-04-21T06:17:51;101651.44;;;8.21;100.00
1736;BME280;865;53.672;10.250;2023-04-21T06:20:18;101643.63;;;8.18;100.00
1736;BME280;865;53.672;10.250;2023-04-21T06:22:44;101635.84;;;8.18;100.00
1736;BME280;865;53.672;10.250;2023-04-21T06:25:11;101640.22;;;8.32;100.00
1736;BME280;865;53.672;10.250;2023-04-21T06:27:37;101641.19;;;8.49;100.00
1736;BME280;865;53.672;10.250;2023-04-21T06:30:04;101637.69;;;8.44;100.00
1736;BME280;865;53.672;10.250;2023-04-21T06:32:30;101636.00;;;8.58;100.00
1736;BME280;865;53.672;10.250;2023-04-21T06:34:57;101635.13;;;8.55;100.00
1736;BME280;865;53.672;10.250;2023-04-21T06:37:23;101641.22;;;8.64;100.00
1736;BME280;865;53.672;10.250;2023-04-21T06:39:49;101636.91;;;8.70;100.00
1736;BME280;865;53.672;10.250;2023-04-21T06:42:16;101634.34;;;8.91;100.00
1736;BME280;865;53.672;10.250;2023-04-21T06:44:42;101633.47;;;8.90;100.00
1736;BME280;865;53.672;10.250;2023-04-21T06:47:09;101630.84;;;8.89;100.00
1736;BME280;865;53.672;10.250;2023-04-21T06:49:35;101629.16;;;8.96;100.00
1736;BME280;865;53.672;10.250;2023-04-21T06:52:03;101617.88;;;9.15;100.00
1736;BME280;865;53.672;10.250;2023-04-21T06:54:29;101617.00;;;9.04;100.00
1736;BME280;865;53.672;10.250;2023-04-21T06:56:55;101626.53;;;9.06;100.00
1736;BME280;865;53.672;10.250;2023-04-21T06:59:22;101620.50;;;9.29;100.00
1736;BME280;865;53.672;10.250;2023-04-21T07:01:48;101616.16;;;9.46;100.00
1736;BME280;865;53.672;10.250;2023-04-21T07:04:18;101617.88;;;9.53;100.00
1736;BME280;865;53.672;10.250;2023-04-21T07:06:45;101619.63;;;9.47;100.00
1736;BME280;865;53.672;10.250;2023-04-21T07:09:11;101611.81;;;9.44;100.00
1736;BME280;865;53.672;10.250;2023-04-21T07:11:38;101618.75;;;9.55;100.00
1736;BME280;865;53.672;10.250;2023-04-21T07:14:04;101612.63;;;9.73;100.00
1736;BME280;865;53.672;10.250;2023-04-21T07:16:31;101608.28;;;9.77;100.00
1736;BME280;865;53.672;10.250;2023-04-21T07:18:58;101613.44;;;9.95;100.00
1736;BME280;865;53.672;10.250;2023-04-21T07:21:25;101616.81;;;10.19;100.00
1736;BME280;865;53.672;10.250;2023-04-21T07:23:51;101608.13;;;10.31;100.00
1736;BME280;865;53.672;10.250;2023-04-21T07:26:17;101615.03;;;10.35;100.00
1736;BME280;865;53.672;10.250;2023-04-21T07:28:44;101605.50;;;10.29;100.00
1736;BME280;865;53.672;10.250;2023-04-21T07:31:10;101604.63;;;10.33;100.00
1736;BME280;865;53.672;10.250;2023-04-21T07:33:36;101607.13;;;10.55;100.00
1736;BME280;865;53.672;10.250;2023-04-21T07:36:03;101604.50;;;10.58;100.00
1736;BME280;865;53.672;10.250;2023-04-21T07:38:29;101609.63;;;10.70;100.00
1736;BME280;865;53.672;10.250;2023-04-21T07:40:56;101600.13;;;10.61;100.00
1736;BME280;865;53.672;10.250;2023-04-21T07:43:22;101607.84;;;10.78;100.00
1736;BME280;865;53.672;10.250;2023-04-21T07:45:48;101607.81;;;10.84;100.00
1736;BME280;865;53.672;10.250;2023-04-21T07:48:17;101600.00;;;10.78;100.00
1736;BME280;865;53.672;10.250;2023-04-21T07:50:44;101595.63;;;10.83;100.00
1736;BME280;865;53.672;10.250;2023-04-21T07:53:10;101595.56;;;10.95;100.00
1736;BME280;865;53.672;10.250;2023-04-21T07:55:36;101593.78;;;10.94;100.00
1736;BME280;865;53.672;10.250;2023-04-21T07:58:03;101591.06;;;11.13;100.00
1736;BME280;865;53.672;10.250;2023-04-21T08:00:30;101591.78;;;11.29;100.00
1736;BME280;865;53.672;10.250;2023-04-21T08:02:56;101589.16;;;11.32;100.00
1736;BME280;865;53.672;10.250;2023-04-21T08:05:23;101583.72;;;11.55;100.00
1736;BME280;865;53.672;10.250;2023-04-21T08:07:54;101585.28;;;11.68;100.00
1736;BME280;865;53.672;10.250;2023-04-21T08:10:20;101579.03;;;11.84;100.00
1736;BME280;865;53.672;10.250;2023-04-21T08:12:47;101579.09;;;11.78;100.00
1736;BME280;865;53.672;10.250;2023-04-21T08:15:13;101580.78;;;11.82;100.00
1736;BME280;865;53.672;10.250;2023-04-21T08:17:39;101570.06;;;12.07;100.00
1736;BME280;865;53.672;10.250;2023-04-21T08:20:06;101572.44;;;12.27;100.00
1736;BME280;865;53.672;10.250;2023-04-21T08:22:33;101574.88;;;12.41;100.00
1736;BME280;865;53.672;10.250;2023-04-21T08:25:02;101574.22;;;12.23;100.00
1736;BME280;865;53.672;10.250;2023-04-21T08:27:29;101575.13;;;12.19;100.00
1736;BME280;865;53.672;10.250;2023-04-21T08:29:55;101571.31;;;12.45;100.00
1736;BME280;865;53.672;10.250;2023-04-21T08:32:21;101553.75;;;12.53;100.00
1736;BME280;865;53.672;10.250;2023-04-21T08:34:53;101559.41;;;12.81;100.00
1736;BME280;865;53.672;10.250;2023-04-21T08:37:20;101555.13;;;12.77;100.00
1736;BME280;865;53.672;10.250;2023-04-21T08:39:47;101551.59;;;12.80;100.00
1736;BME280;865;53.672;10.250;2023-04-21T08:42:16;101554.81;;;12.97;100.00
1736;BME280;865;53.672;10.250;2023-04-21T08:44:43;101559.75;;;13.15;100.00
1736;BME280;865;53.672;10.250;2023-04-21T08:47:11;101552.84;;;13.08;100.00
1736;BME280;865;53.672;10.250;2023-04-21T08:49:39;101557.94;;;13.17;100.00
1736;BME280;865;53.672;10.250;2023-04-21T08:52:06;101553.53;;;13.19;100.00
1736;BME280;865;53.672;10.250;2023-04-21T08:54:33;101547.69;;;13.55;100.00
1736;BME280;865;53.672;10.250;2023-04-21T08:57:01;101536.34;;;13.54;100.00
1736;BME280;865;53.672;10.250;2023-04-21T08:59:40;101551.06;;;13.61;100.00
1736;BME280;865;53.672;10.250;2023-04-21T09:02:08;101546.47;;;13.26;100.00
1736;BME280;865;53.672;10.250;2023-04-21T09:04:40;101548.41;;;13.15;100.00
1736;BME280;865;53.672;10.250;2023-04-21T09:07:08;101543.72;;;13.34;100.00
1736;BME280;865;53.672;10.250;2023-04-21T09:09:52;101550.25;;;13.59;100.00
1736;BME280;865;53.672;10.250;2023-04-21T09:12:19;101555.25;;;13.72;100.00
1736;BME280;865;53.672;10.250;2023-04-21T09:14:45;101547.44;;;13.68;100.00
1736;BME280;865;53.672;10.250;2023-04-21T09:17:14;101543.59;;;13.86;100.00
1736;BME280;865;53.672;10.250;2023-04-21T09:19:41;101544.75;;;14.13;100.00
1736;BME280;865;53.672;10.250;2023-04-21T09:22:08;101540.19;;;14.22;100.00
1736;BME280;865;53.672;10.250;2023-04-21T09:24:34;101536.53;;;14.29;100.00
1736;BME280;865;53.672;10.250;2023-04-21T09:27:02;101543.03;;;14.53;100.00
1736;BME280;865;53.672;10.250;2023-04-21T09:29:29;101541.25;;;14.55;100.00
1736;BME280;865;53.672;10.250;2023-04-21T09:31:56;101544.66;;;14.58;100.00
1736;BME280;865;53.672;10.250;2023-04-21T09:34:24;101541.03;;;14.63;100.00
1736;BME280;865;53.672;10.250;2023-04-21T09:37:00;101540.66;;;14.78;100.00
1736;BME280;865;53.672;10.250;2023-04-21T09:39:28;101539.94;;;14.73;100.00
1736;BME280;865;53.672;10.250;2023-04-21T09:42:01;101578.13;;;14.88;100.00
1736;BME280;865;53.672;10.250;2023-04-21T09:44:27;101530.16;;;14.78;100.00
1736;BME280;865;53.672;10.250;2023-04-21T09:47:02;101528.91;;;14.94;100.00
1736;BME280;865;53.672;10.250;2023-04-21T09:49:30;101524.53;;;15.27;100.00
1736;BME280;865;53.672;10.250;2023-04-21T09:51:58;101520.78;;;15.36;100.00
1736;BME280;865;53.672;10.250;2023-04-21T09:54:50;101515.19;;;15.16;100.00
1736;BME280;865;53.672;10.250;2023-04-21T09:57:20;101518.75;;;15.15;100.00
1736;BME280;865;53.672;10.250;2023-04-21T09:59:53;101510.09;;;15.44;100.00
1736;BME280;865;53.672;10.250;2023-04-21T10:02:29;101511.09;;;15.38;100.00
1736;BME280;865;53.672;10.250;2023-04-21T10:04:56;101504.28;;;15.31;100.00
1736;BME280;865;53.672;10.250;2023-04-21T10:07:23;101500.69;;;15.35;100.00
1736;BME280;865;53.672;10.250;2023-04-21T10:09:51;101500.91;;;15.59;100.00
1736;BME280;865;53.672;10.250;2023-04-21T10:12:20;101494.13;;;15.50;100.00
1736;BME280;865;53.672;10.250;2023-04-21T10:14:54;101486.78;;;15.61;100.00
1736;BME280;865;53.672;10.250;2023-04-21T10:17:23;101490.75;;;15.76;100.00
1736;BME280;865;53.672;10.250;2023-04-21T10:19:57;101484.78;;;16.01;100.00
1736;BME280;865;53.672;10.250;2023-04-21T10:22:31;101483.38;;;16.18;100.00
1736;BME280;865;53.672;10.250;2023-04-21T10:25:03;101489.28;;;16.25;100.00
1736;BME280;865;53.672;10.250;2023-04-21T10:27:38;101486.13;;;16.14;100.00
1736;BME280;865;53.672;10.250;2023-04-21T10:30:17;101473.53;;;15.95;100.00
1736;BME280;865;53.672;10.250;2023-04-21T10:32:44;101477.78;;;16.00;100.00
1736;BME280;865;53.672;10.250;2023-04-21T10:35:16;101478.75;;;16.25;100.00
1736;BME280;865;53.672;10.250;2023-04-21T10:37:47;101471.59;;;16.30;100.00
1736;BME280;865;53.672;10.250;2023-04-21T10:43:41;101458.91;;;16.68;100.00
1736;BME280;865;53.672;10.250;2023-04-21T10:46:30;103011.72;;;16.87;100.00
1736;BME280;865;53.672;10.250;2023-04-21T10:49:09;102842.25;;;16.71;100.00
1736;BME280;865;53.672;10.250;2023-04-21T10:54:40;101455.50;;;16.66;100.00
1736;BME280;865;53.672;10.250;2023-04-21T10:57:08;101451.53;;;16.79;100.00
1736;BME280;865;53.672;10.250;2023-04-21T10:59:36;101455.50;;;16.93;100.00
1736;BME280;865;53.672;10.250;2023-04-21T11:02:07;102587.19;;;16.93;100.00
1736;BME280;865;53.672;10.250;2023-04-21T11:04:36;102980.69;;;17.12;100.00
1736;BME280;865;53.672;10.250;2023-04-21T11:07:22;102971.28;;;16.88;100.00
1736;BME280;865;53.672;10.250;2023-04-21T11:09:57;102861.31;;;16.98;100.00
1736;BME280;865;53.672;10.250;2023-04-21T11:12:38;102737.28;;;17.05;100.00
1736;BME280;865;53.672;10.250;2023-04-21T11:15:07;101457.69;;;17.05;100.00
1736;BME280;865;53.672;10.250;2023-04-21T11:17:35;101446.00;;;17.12;100.00
1736;BME280;865;53.672;10.250;2023-04-21T11:20:05;101447.47;;;17.21;100.00
1736;BME280;865;53.672;10.250;2023-04-21T11:22:32;101443.22;;;17.17;100.00
1736;BME280;865;53.672;10.250;2023-04-21T11:24:59;101443.34;;;17.14;100.00
1736;BME280;865;53.672;10.250;2023-04-21T11:27:26;101431.81;;;17.40;100.00
1736;BME280;865;53.672;10.250;2023-04-21T11:29:54;101426.31;;;17.22;100.00
1736;BME280;865;53.672;10.250;2023-04-21T11:32:20;101426.13;;;17.27;100.00
1736;BME280;865;53.672;10.250;2023-04-21T11:34:47;101421.91;;;17.46;100.00
1736;BME280;865;53.672;10.250;2023-04-21T11:37:16;101417.53;;;17.45;100.00
1736;BME280;865;53.672;10.250;2023-04-21T11:39:43;101419.06;;;17.52;100.00
1736;BME280;865;53.672;10.250;2023-04-21T11:42:09;101414.84;;;17.47;100.00
1736;BME280;865;53.672;10.250;2023-04-21T11:44:39;101405.50;;;17.38;100.00
1736;BME280;865;53.672;10.250;2023-04-21T11:47:20;101411.03;;;17.32;100.00
1736;BME280;865;53.672;10.250;2023-04-21T11:49:55;101400.28;;;17.37;100.00
1736;BME280;865;53.672;10.250;2023-04-21T11:52:27;101393.44;;;17.31;100.00
1736;BME280;865;53.672;10.250;2023-04-21T11:54:59;101392.94;;;17.45;100.00
1736;BME280;865;53.672;10.250;2023-04-21T11:57:26;101389.22;;;17.50;100.00
1736;BME280;865;53.672;10.250;2023-04-21T11:59:53;101392.44;;;17.35;100.00
1736;BME280;865;53.672;10.250;2023-04-21T12:02:22;101387.31;;;17.30;100.00
1736;BME280;865;53.672;10.250;2023-04-21T12:05:00;101381.09;;;17.33;100.00
1736;BME280;865;53.672;10.250;2023-04-21T12:07:31;101383.22;;;17.23;100.00
1736;BME280;865;53.672;10.250;2023-04-21T12:09:59;101369.94;;;17.48;100.00
1736;BME280;865;53.672;10.250;2023-04-21T12:12:26;101370.50;;;17.57;100.00
1736;BME280;865;53.672;10.250;2023-04-21T12:14:52;101373.84;;;17.85;100.00
1736;BME280;865;53.672;10.250;2023-04-21T12:17:19;101359.09;;;17.80;100.00
1736;BME280;865;53.672;10.250;2023-04-21T12:19:46;101375.03;;;17.76;100.00
1736;BME280;865;53.672;10.250;2023-04-21T12:22:14;101371.69;;;17.71;100.00
1736;BME280;865;53.672;10.250;2023-04-21T12:24:41;101369.66;;;17.80;100.00
1736;BME280;865;53.672;10.250;2023-04-21T12:27:08;101373.03;;;17.83;100.00
1736;BME280;865;53.672;10.250;2023-04-21T12:29:35;101372.38;;;17.76;100.00
1736;BME280;865;53.672;10.250;2023-04-21T12:32:04;101363.72;;;17.73;100.00
1736;BME280;865;53.672;10.250;2023-04-21T12:34:31;101363.44;;;17.35;100.00
1736;BME280;865;53.672;10.250;2023-04-21T12:36:58;101366.09;;;17.57;100.00
1736;BME280;865;53.672;10.250;2023-04-21T12:39:24;101350.59;;;17.71;100.00
1736;BME280;865;53.672;10.250;2023-04-21T12:41:51;101348.88;;;17.70;100.00
1736;BME280;865;53.672;10.250;2023-04-21T12:44:17;101344.66;;;17.43;100.00
1736;BME280;865;53.672;10.250;2023-04-21T12:46:43;101350.75;;;17.45;100.00
1736;BME280;865;53.672;10.250;2023-04-21T12:49:10;101351.47;;;17.48;100.00
1736;BME280;865;53.672;10.250;2023-04-21T12:51:36;101355.41;;;17.38;100.00
1736;BME280;865;53.672;10.250;2023-04-21T12:54:03;101340.16;;;17.46;100.00
1736;BME280;865;53.672;10.250;2023-04-21T12:56:29;101340.53;;;17.59;100.00
1736;BME280;865;53.672;10.250;2023-04-21T12:58:56;101333.56;;;17.80;100.00
1736;BME280;865;53.672;10.250;2023-04-21T13:01:23;101330.25;;;17.97;100.00
1736;BME280;865;53.672;10.250;2023-04-21T13:03:50;101325.09;;;17.94;100.00
1736;BME280;865;53.672;10.250;2023-04-21T13:06:17;101321.94;;;18.06;100.00
1736;BME280;865;53.672;10.250;2023-04-21T13:08:43;101317.28;;;17.91;100.00
1736;BME280;865;53.672;10.250;2023-04-21T13:11:10;101320.63;;;17.72;100.00
1736;BME280;865;53.672;10.250;2023-04-21T13:13:36;101322.91;;;17.82;100.00